AirNav   Bose Proflight Series 2 Wireless Aviation Headset
 
 725 users online  

DC06 MPD 2nd Heliport
Washington, District of Columbia, USA

GOING TO WASHINGTON?


FAA INFORMATION EFFECTIVE 07 NOVEMBER 2019

Location

FAA Identifier: DC06
Lat/Long: 38-56-04.3990N 077-04-27.9190W
38-56.073317N 077-04.465317W
38.9345553,-77.0744219
(estimated)
Elevation: 106 ft. / 32 m (estimated)
Variation: 09W (1985)
Time zone: UTC -5 (UTC -4 during Daylight Saving Time)
Zip code: 20016

Heliport Operations

Heliport use: Private use. Permission required prior to landing
Activation date: 06/1975
Control tower: no
ARTCC: WASHINGTON CENTER
FSS: LEESBURG FLIGHT SERVICE STATION
Attendance: UNATNDD
Wind indicator: yes
Segmented circle: yes
Lights: FOR PERIMETER LGTS CALL 202-724-4368.

Heliport Communications

WX ASOS at DCA (5 nm S): 132.65 (703-412-8140)
WX AWOS-3 at CGS (8 nm E): 121.225 (301-864-5497)
WX AWOS-3PT at GAI (15 nm N): 128.275 (301-977-2971)
WX AWOS-3 at FME (17 nm NE): 123.925
WX ASOS at IAD (18 nm W): PHONE 703-661-2990

Nearby radio navigation aids

VOR radial/distance  VOR name  Freq  Var
DCAr348/4.8WASHINGTON VOR/DME111.0009W
ADWr318/12.4ANDREWS VORTAC113.1010W
AMLr098/18.3ARMEL VOR/DME113.5008W
OTTr322/20.6NOTTINGHAM VORTAC113.7010W
BALr245/23.9BALTIMORE VORTAC115.1011W
FDKr162/(31.9)FREDERICK VOR109.0008W
EMIr196/33.9WESTMINSTER VORTAC117.9008W
BRVr029/38.2BROOKE VORTAC114.5009W

 
NDB name  Hdg/Dist  Freq  Var  ID
GEORGETOWN092/2.332309WGTN --. - -.
OXONN359/10.433211WDCA -.. -.-. .-
DAVEE015/16.522309WDAA -.. .- .-
ELLICOTT224/25.337111WFND ..-. -. -..

Heliport Services

Airframe service: NONE
Powerplant service: NONE

Runway Information

Helipad H1

Dimensions: 60 x 60 ft. / 18 x 18 m
Surface: concrete
ROOFTOP.
Runway edge lights: PERI
Latitude: 38-56.073317N
Longitude: 077-04.465317W
Elevation: 106.0 ft.
Traffic pattern: leftleft

Heliport Ownership and Management from official FAA records

Ownership: Publicly-owned
Owner: METROPOLITAN POLICE DEPT.
3320 IDAHO AVE, NW
WASHINGTON, DC 20016
Phone 202-282-0074
Manager: MS VIVAN ANDREWS
300 INDIANA AVE, NW
WASHINGTON, DC 20001
Phone 202-727-4368

Heliport Operational Statistics

Aircraft based on the field: 4
Helicopters: 4
    

Additional Remarks

FOR CD CTC POTOMAC APCH AT 866-599-3874.

Instrument Procedures

There are no published instrument procedures at DC06.

Some nearby airports with instrument procedures:

KDCA - Ronald Reagan Washington National Airport (5 nm S)
KCGS - College Park Airport (8 nm E)
KADW - Joint Base Andrews (12 nm SE)
KVKX - Potomac Airfield (12 nm SE)
W32 - Washington Executive Airport/Hyde Field (13 nm SE)
KDAA - Davison Army Airfield (14 nm S)
W00 - Freeway Airport (14 nm E)
KGAI - Montgomery County Airpark (15 nm N)
KFME - Tipton Airport (17 nm NE)
KIAD - Washington Dulles International Airport (18 nm W)
 
Loc | Ops | Rwys | IFR | FBO | Links
Com | Nav | Svcs | Stats | Notes
Area around DC06 (MPD 2nd Heliport)
 
Road maps at: MapQuest Bing Google
 
Aerial photo
No photo
 
Sectional chart

 
Airport distance calculator
Flying to MPD 2nd Heliport? Find the distance to fly.

From to DC06

Sunrise and sunset
Times for 15-Nov-2019
 Local
(UTC-5)
 Zulu
(UTC)
Morning civil twilight06:2411:24
Sunrise06:5211:52
Sunset16:5421:54
Evening civil twilight17:2222:22

Current date and time
Zulu (UTC)  16-Nov-2019 02:32:47
Local (UTC-5)  15-Nov-2019 21:32:47
 
METAR
KDCA 
5nm S 
160152Z 01005KT 10SM BKN250 07/M01 A3022 RMK AO2 SLP232 T00671011
KCGS 
8nm E 
160215Z AUTO 00000KT 10SM CLR 02/M03 A3022 RMK AO1 T00201027
KADW 
12nm SE 
160156Z AUTO 00000KT 10SM CLR 04/M02 A3019 RMK AO2 SLP232 T00371025 $
KDAA 
14nm S 
160158Z 00000KT 10SM CLR 03/M02 A3021 RMK SLP234
KGAI 
15nm N 
160156Z AUTO 00000KT 10SM CLR 01/M03 A3022 RMK AO2 SLP252 T00061033 FZRANO
KFME 
17nm NE 
160215Z AUTO 00000KT 10SM CLR 01/M02 A3024 RMK AO1
KIAD 
18nm W 
160152Z 00000KT 10SM FEW140 BKN200 01/M03 A3022 RMK AO2 SLP235 T00111033
TAF
KDCA 
5nm S 
152057Z 1521/1624 31006KT P6SM SCT120 BKN250 FM160300 35010G18KT P6SM SCT250 FM161300 02015G22KT P6SM FEW250 FM162200 03012KT P6SM FEW200
KADW 
12nm SE 
160100Z 1601/1707 02009KT 9999 SCT220 QNH3022INS BECMG 1606/1607 02010G15KT 9999 BKN020 OVC200 QNH3025INS BECMG 1611/1612 04015G25KT 9999 SCT020 SCT200 QNH3029INS BECMG 1621/1622 04012G18KT 9999 FEW035 QNH3028INS BECMG 1703/1704 04012G18KT 9999 BKN020 OVC030 QNH3031INS TX05/1601Z TN01/1612Z
KDAA 
14nm S 
151800Z 1518/1624 34009KT 9999 FEW250 QNH3017INS BECMG 1605/1606 02012KT 9999 SCT020 QNH3019INS BECMG 1613/1614 03012G18KT 9999 FEW040 510152 QNH3023INS BECMG 1623/1624 02009KT 9999 FEW080 SCT100 QNH3025INS TX14/1522Z TN01/1613Z
KIAD 
18nm W 
152057Z 1521/1624 32005KT P6SM SCT100 BKN250 FM160300 34008G16KT P6SM SCT250 FM161300 01015G22KT P6SM FEW250 FM162200 03013KT P6SM FEW200
NOTAMs
Click for the latest NOTAMs
NOTAMs are issued by the DoD/FAA and will open in a separate window not controlled by AirNav.

 

 
 

Would you like to see your business listed on this page?

 If your business provides an interesting product or service to pilots, flight crews, aircraft, or users of the MPD 2nd Heliport, you should consider listing it here.  To start the listing process, click on the button below
 
Add a business
 

Other Pages about MPD 2nd Heliport

Update a link
 
Copyright © AirNav, LLC. All rights reserved. Privacy Policy  Contact